THY2UC LTFM-LICJ
Flight info
| Callsign | THY2UC |
|---|---|
| Flight time | 1h 44m |
| Altitude | 34000 |
| Route | BARPE1D/35L BARPE UM603 TSL UM600 KOGIS DCT LATAN/N0468F350 DCT BUDIN/N0395F190 L869 PAL |
| Aircraft | B738/M-SDE2E3FGHIRWXY/LB1 |
Departure
| Time | 2026-05-01 12:39 |
|---|---|
| Airport | İstanbul Airport (LTFM) |
Arrival
| Time | 2026-05-01 14:23 |
|---|---|
| Airport | Falcone–Borsellino Airport (LICJ) |
| Time | Latitude | Longitude | Altitude | Speed | Heading |
|---|---|---|---|---|---|
| 2026-05-01 12:06 | 41.25976 | 28.73560 | 329 ft | 0 kts | 107° |
| 2026-05-01 12:07 | 41.25864 | 28.73496 | 331 ft | 0 kts | 107° |
| 2026-05-01 12:28 | 41.25870 | 28.73471 | 330 ft | 4 kts | 107° |
| 2026-05-01 12:28 | 41.25885 | 28.73424 | 330 ft | 4 kts | 142° |
| 2026-05-01 12:29 | 41.25907 | 28.73414 | 329 ft | 3 kts | 194° |
| 2026-05-01 12:29 | 41.25911 | 28.73416 | 332 ft | 1 kts | 197° |
| 2026-05-01 12:33 | 41.25902 | 28.73403 | 328 ft | 4 kts | 245° |
| 2026-05-01 12:33 | 41.25905 | 28.73353 | 332 ft | 6 kts | 275° |
| 2026-05-01 12:34 | 41.25911 | 28.73291 | 330 ft | 7 kts | 282° |
| 2026-05-01 12:34 | 41.25943 | 28.73245 | 331 ft | 8 kts | 346° |
| 2026-05-01 12:34 | 41.25995 | 28.73241 | 328 ft | 7 kts | 358° |
| 2026-05-01 12:34 | 41.26045 | 28.73241 | 330 ft | 7 kts | 0° |
| 2026-05-01 12:35 | 41.26093 | 28.73240 | 331 ft | 7 kts | 359° |
| 2026-05-01 12:35 | 41.26141 | 28.73240 | 331 ft | 5 kts | 359° |
| 2026-05-01 12:35 | 41.26177 | 28.73239 | 331 ft | 5 kts | 358° |
| 2026-05-01 12:35 | 41.26209 | 28.73222 | 333 ft | 5 kts | 317° |
| 2026-05-01 12:36 | 41.26218 | 28.73164 | 330 ft | 7 kts | 269° |
| 2026-05-01 12:36 | 41.26218 | 28.73097 | 332 ft | 8 kts | 269° |
| 2026-05-01 12:36 | 41.26216 | 28.73028 | 331 ft | 7 kts | 269° |
| 2026-05-01 12:36 | 41.26215 | 28.72962 | 333 ft | 7 kts | 269° |
| 2026-05-01 12:37 | 41.26215 | 28.72897 | 333 ft | 7 kts | 269° |
| 2026-05-01 12:37 | 41.26213 | 28.72817 | 333 ft | 10 kts | 267° |
| 2026-05-01 12:37 | 41.26210 | 28.72705 | 333 ft | 14 kts | 266° |
| 2026-05-01 12:37 | 41.26208 | 28.72586 | 330 ft | 9 kts | 270° |
| 2026-05-01 12:38 | 41.26225 | 28.72530 | 331 ft | 7 kts | 326° |
| 2026-05-01 12:38 | 41.26245 | 28.72525 | 332 ft | 0 kts | 359° |
| 2026-05-01 12:38 | 41.26258 | 28.72525 | 333 ft | 14 kts | 359° |
| 2026-05-01 12:38 | 41.26594 | 28.72519 | 331 ft | 81 kts | 359° |
| 2026-05-01 12:39 | 41.27361 | 28.72498 | 331 ft | 138 kts | 359° |
| 2026-05-01 12:39 | 41.28426 | 28.72461 | 666 ft | 161 kts | 6° |
| 2026-05-01 12:39 | 41.29571 | 28.72436 | 1483 ft | 162 kts | 4° |
| 2026-05-01 12:39 | 41.30703 | 28.72436 | 2236 ft | 171 kts | 5° |
| 2026-05-01 12:40 | 41.31950 | 28.72422 | 2631 ft | 190 kts | 4° |
| 2026-05-01 12:40 | 41.33337 | 28.72449 | 2961 ft | 207 kts | 5° |
| 2026-05-01 12:40 | 41.34801 | 28.72489 | 3436 ft | 218 kts | 2° |
| 2026-05-01 12:40 | 41.36338 | 28.71871 | 3774 ft | 247 kts | 332° |
| 2026-05-01 12:41 | 41.37568 | 28.70190 | 4507 ft | 265 kts | 304° |
| 2026-05-01 12:41 | 41.38162 | 28.67816 | 5344 ft | 276 kts | 283° |
| 2026-05-01 12:41 | 41.38215 | 28.65228 | 6185 ft | 282 kts | 270° |
| 2026-05-01 12:41 | 41.38102 | 28.62629 | 7051 ft | 282 kts | 273° |
| 2026-05-01 12:42 | 41.38022 | 28.59996 | 7780 ft | 286 kts | 266° |
| 2026-05-01 12:42 | 41.37431 | 28.57467 | 8697 ft | 286 kts | 246° |
| 2026-05-01 12:42 | 41.36687 | 28.55028 | 9576 ft | 285 kts | 251° |
| 2026-05-01 12:42 | 41.36014 | 28.52559 | 10464 ft | 284 kts | 251° |
| 2026-05-01 12:43 | 41.35332 | 28.50008 | 10741 ft | 304 kts | 251° |
| 2026-05-01 12:43 | 41.34609 | 28.47305 | 10925 ft | 325 kts | 251° |
| 2026-05-01 12:43 | 41.33823 | 28.44384 | 11128 ft | 345 kts | 251° |
| 2026-05-01 12:43 | 41.32986 | 28.41290 | 11301 ft | 365 kts | 251° |
| 2026-05-01 12:44 | 41.32107 | 28.38064 | 11697 ft | 375 kts | 251° |
| 2026-05-01 12:44 | 41.31207 | 28.34770 | 12225 ft | 381 kts | 251° |
| 2026-05-01 12:44 | 41.29386 | 28.28143 | 13715 ft | 381 kts | 251° |
| 2026-05-01 12:45 | 41.27554 | 28.21491 | 14845 ft | 388 kts | 251° |
| 2026-05-01 12:45 | 41.26628 | 28.18136 | 15607 ft | 384 kts | 251° |
| 2026-05-01 12:45 | 41.25713 | 28.14828 | 16493 ft | 378 kts | 251° |
| 2026-05-01 12:46 | 41.24804 | 28.11547 | 17076 ft | 381 kts | 251° |
| 2026-05-01 12:46 | 41.23882 | 28.08217 | 17519 ft | 387 kts | 250° |
| 2026-05-01 12:46 | 41.22937 | 28.04808 | 17747 ft | 398 kts | 250° |
| 2026-05-01 12:46 | 41.21974 | 28.01339 | 18223 ft | 401 kts | 251° |
| 2026-05-01 12:47 | 41.21006 | 27.97859 | 18722 ft | 404 kts | 250° |
| 2026-05-01 12:47 | 41.20030 | 27.94355 | 19179 ft | 406 kts | 250° |
| 2026-05-01 12:47 | 41.19048 | 27.90838 | 19685 ft | 406 kts | 250° |
| 2026-05-01 12:47 | 41.18064 | 27.87314 | 20156 ft | 408 kts | 250° |
| 2026-05-01 12:48 | 41.17072 | 27.83769 | 20522 ft | 413 kts | 250° |
| 2026-05-01 12:48 | 41.16070 | 27.80190 | 20937 ft | 416 kts | 250° |
| 2026-05-01 12:48 | 41.15056 | 27.76576 | 21307 ft | 419 kts | 250° |
| 2026-05-01 12:48 | 41.14036 | 27.72945 | 21730 ft | 421 kts | 250° |
| 2026-05-01 12:49 | 41.13012 | 27.69306 | 22171 ft | 421 kts | 250° |
| 2026-05-01 12:49 | 41.11985 | 27.65663 | 22608 ft | 422 kts | 250° |
| 2026-05-01 12:49 | 41.10954 | 27.62007 | 22993 ft | 425 kts | 250° |
| 2026-05-01 12:49 | 41.09916 | 27.58333 | 23368 ft | 426 kts | 250° |
| 2026-05-01 12:50 | 41.08873 | 27.54646 | 23742 ft | 428 kts | 250° |
| 2026-05-01 12:50 | 41.07823 | 27.50943 | 24053 ft | 430 kts | 250° |
| 2026-05-01 12:50 | 41.06768 | 27.47225 | 24372 ft | 432 kts | 250° |
| 2026-05-01 12:50 | 41.05706 | 27.43486 | 24591 ft | 435 kts | 250° |
| 2026-05-01 12:51 | 41.04636 | 27.39728 | 24855 ft | 437 kts | 250° |
| 2026-05-01 12:51 | 41.03560 | 27.35952 | 25167 ft | 438 kts | 250° |
| 2026-05-01 12:51 | 41.01406 | 27.28412 | 25850 ft | 438 kts | 250° |
| 2026-05-01 12:52 | 41.00322 | 27.24626 | 26074 ft | 441 kts | 250° |
| 2026-05-01 12:52 | 40.98143 | 27.17027 | 26728 ft | 441 kts | 250° |
| 2026-05-01 12:52 | 40.97051 | 27.13230 | 27065 ft | 441 kts | 250° |
| 2026-05-01 12:53 | 40.94873 | 27.05666 | 27818 ft | 439 kts | 250° |
| 2026-05-01 12:53 | 40.93787 | 27.01908 | 28236 ft | 437 kts | 250° |
| 2026-05-01 12:53 | 40.92838 | 26.98110 | 28645 ft | 433 kts | 256° |
| 2026-05-01 12:54 | 40.92307 | 26.94225 | 29234 ft | 427 kts | 264° |
| 2026-05-01 12:54 | 40.91898 | 26.86399 | 29977 ft | 427 kts | 265° |
| 2026-05-01 12:54 | 40.91690 | 26.82476 | 30152 ft | 430 kts | 265° |
| 2026-05-01 12:55 | 40.91246 | 26.74597 | 30740 ft | 428 kts | 265° |
| 2026-05-01 12:55 | 40.91016 | 26.70686 | 31091 ft | 426 kts | 265° |
| 2026-05-01 12:55 | 40.90787 | 26.66842 | 31363 ft | 425 kts | 265° |
| 2026-05-01 12:56 | 40.90552 | 26.62944 | 31597 ft | 426 kts | 265° |
| 2026-05-01 12:56 | 40.90317 | 26.59047 | 31857 ft | 425 kts | 265° |
| 2026-05-01 12:56 | 40.90080 | 26.55157 | 32132 ft | 425 kts | 265° |
| 2026-05-01 12:56 | 40.89841 | 26.51252 | 32296 ft | 427 kts | 265° |
| 2026-05-01 12:57 | 40.89601 | 26.47342 | 32524 ft | 427 kts | 265° |
| 2026-05-01 12:57 | 40.89118 | 26.39557 | 33127 ft | 424 kts | 265° |
| 2026-05-01 12:57 | 40.88878 | 26.35686 | 33536 ft | 419 kts | 265° |
| 2026-05-01 12:58 | 40.88641 | 26.31878 | 33955 ft | 415 kts | 265° |
| 2026-05-01 12:58 | 40.88402 | 26.28083 | 34170 ft | 415 kts | 265° |
| 2026-05-01 12:59 | 40.87465 | 26.16611 | 34227 ft | 421 kts | 263° |
| 2026-05-01 12:59 | 40.86313 | 26.05156 | 34244 ft | 418 kts | 263° |
| 2026-05-01 13:00 | 40.85196 | 25.93731 | 34245 ft | 418 kts | 263° |
| 2026-05-01 13:01 | 40.83820 | 25.82356 | 34210 ft | 418 kts | 262° |
| 2026-05-01 13:02 | 40.82426 | 25.71022 | 34203 ft | 416 kts | 262° |
| 2026-05-01 13:07 | 40.70346 | 24.88789 | 34197 ft | 417 kts | 256° |
| 2026-05-01 13:08 | 40.68783 | 24.81447 | 34199 ft | 416 kts | 256° |
| 2026-05-01 13:08 | 40.67232 | 24.74105 | 34179 ft | 415 kts | 257° |
| 2026-05-01 13:09 | 40.65687 | 24.66797 | 34197 ft | 414 kts | 256° |
| 2026-05-01 13:09 | 40.64139 | 24.59500 | 34204 ft | 414 kts | 256° |
| 2026-05-01 13:10 | 40.62587 | 24.52203 | 34204 ft | 413 kts | 256° |
| 2026-05-01 13:10 | 40.61032 | 24.44925 | 34195 ft | 413 kts | 256° |
| 2026-05-01 13:11 | 40.59475 | 24.37661 | 34195 ft | 412 kts | 256° |
| 2026-05-01 13:11 | 40.57915 | 24.30406 | 34177 ft | 411 kts | 256° |
| 2026-05-01 13:12 | 40.56356 | 24.23180 | 34191 ft | 410 kts | 256° |
| 2026-05-01 13:12 | 40.54796 | 24.15977 | 34198 ft | 409 kts | 256° |
| 2026-05-01 13:13 | 40.53488 | 24.09952 | 34200 ft | 409 kts | 256° |
| 2026-05-01 13:13 | 40.51923 | 24.02767 | 34207 ft | 409 kts | 256° |
| 2026-05-01 13:14 | 40.50355 | 23.95594 | 34204 ft | 409 kts | 256° |
| 2026-05-01 13:14 | 40.48781 | 23.88414 | 34205 ft | 409 kts | 256° |
| 2026-05-01 13:15 | 40.47202 | 23.81237 | 34190 ft | 408 kts | 256° |
| 2026-05-01 13:15 | 40.45624 | 23.74087 | 34212 ft | 407 kts | 256° |
| 2026-05-01 13:16 | 40.44043 | 23.66948 | 34203 ft | 407 kts | 256° |
| 2026-05-01 13:16 | 40.42458 | 23.59816 | 34198 ft | 407 kts | 256° |
| 2026-05-01 13:17 | 40.39276 | 23.45556 | 34211 ft | 407 kts | 256° |
| 2026-05-01 13:18 | 40.36874 | 23.34854 | 34218 ft | 409 kts | 256° |
| 2026-05-01 13:18 | 40.35262 | 23.27706 | 34227 ft | 409 kts | 256° |
| 2026-05-01 13:19 | 40.33643 | 23.20546 | 34229 ft | 410 kts | 256° |
| 2026-05-01 13:20 | 40.31197 | 23.09770 | 34216 ft | 411 kts | 256° |
| 2026-05-01 13:20 | 40.29557 | 23.02577 | 34222 ft | 412 kts | 256° |
| 2026-05-01 13:21 | 40.27089 | 22.91789 | 34205 ft | 412 kts | 256° |
| 2026-05-01 13:21 | 40.25441 | 22.84618 | 34219 ft | 410 kts | 256° |
| 2026-05-01 13:22 | 40.23794 | 22.77474 | 34221 ft | 409 kts | 255° |
| 2026-05-01 13:22 | 40.22147 | 22.70351 | 34221 ft | 409 kts | 255° |
| 2026-05-01 13:23 | 40.20497 | 22.63235 | 34220 ft | 409 kts | 255° |
| 2026-05-01 13:23 | 40.18852 | 22.56167 | 34224 ft | 409 kts | 255° |
| 2026-05-01 13:24 | 40.17192 | 22.49054 | 34223 ft | 409 kts | 255° |
| 2026-05-01 13:25 | 40.14696 | 22.38400 | 34230 ft | 408 kts | 255° |
| 2026-05-01 13:25 | 40.13028 | 22.31312 | 34205 ft | 408 kts | 255° |
| 2026-05-01 13:26 | 40.11357 | 22.24226 | 34220 ft | 408 kts | 255° |
| 2026-05-01 13:26 | 40.09682 | 22.17144 | 34196 ft | 409 kts | 255° |
| 2026-05-01 13:27 | 40.07998 | 22.10053 | 34189 ft | 409 kts | 255° |
| 2026-05-01 13:27 | 40.05464 | 21.99421 | 34203 ft | 409 kts | 255° |
| 2026-05-01 13:28 | 40.02926 | 21.88820 | 34192 ft | 407 kts | 255° |
| 2026-05-01 13:29 | 39.99540 | 21.74748 | 34197 ft | 406 kts | 255° |
| 2026-05-01 13:31 | 39.94433 | 21.53683 | 34190 ft | 407 kts | 255° |
| 2026-05-01 13:32 | 39.90154 | 21.36179 | 34193 ft | 404 kts | 255° |
| 2026-05-01 13:33 | 39.85868 | 21.18776 | 34154 ft | 403 kts | 255° |
| 2026-05-01 13:34 | 39.82424 | 21.04881 | 34112 ft | 404 kts | 255° |
| 2026-05-01 13:35 | 39.79832 | 20.94479 | 34070 ft | 402 kts | 255° |
| 2026-05-01 13:36 | 39.77246 | 20.84143 | 34078 ft | 399 kts | 255° |
| 2026-05-01 13:36 | 39.74669 | 20.73884 | 34074 ft | 400 kts | 255° |
| 2026-05-01 13:37 | 39.72937 | 20.67017 | 34075 ft | 400 kts | 255° |
| 2026-05-01 13:37 | 39.71198 | 20.60142 | 34045 ft | 401 kts | 255° |
| 2026-05-01 13:38 | 39.68588 | 20.49858 | 34035 ft | 399 kts | 255° |
| 2026-05-01 13:39 | 39.66851 | 20.43040 | 34053 ft | 397 kts | 255° |
| 2026-05-01 13:39 | 39.65112 | 20.36230 | 34015 ft | 397 kts | 255° |
| 2026-05-01 13:40 | 39.63372 | 20.29436 | 34043 ft | 397 kts | 255° |
| 2026-05-01 13:40 | 39.61624 | 20.22627 | 34046 ft | 398 kts | 255° |
| 2026-05-01 13:41 | 39.59873 | 20.15827 | 34050 ft | 397 kts | 255° |
| 2026-05-01 13:41 | 39.58116 | 20.09025 | 34054 ft | 398 kts | 255° |
| 2026-05-01 13:42 | 39.56357 | 20.02233 | 34040 ft | 396 kts | 255° |
| 2026-05-01 13:42 | 39.54602 | 19.95477 | 34046 ft | 395 kts | 255° |
| 2026-05-01 13:43 | 39.52847 | 19.88732 | 34057 ft | 395 kts | 255° |
| 2026-05-01 13:43 | 39.51085 | 19.82001 | 34044 ft | 395 kts | 255° |
| 2026-05-01 13:44 | 39.49323 | 19.75264 | 34045 ft | 396 kts | 255° |
| 2026-05-01 13:44 | 39.47550 | 19.68501 | 34044 ft | 397 kts | 255° |
| 2026-05-01 13:45 | 39.45770 | 19.61734 | 34052 ft | 398 kts | 255° |
| 2026-05-01 13:45 | 39.43977 | 19.54943 | 34470 ft | 394 kts | 255° |
| 2026-05-01 13:45 | 39.43093 | 19.51605 | 34734 ft | 392 kts | 255° |
| 2026-05-01 13:46 | 39.42210 | 19.48273 | 34850 ft | 393 kts | 255° |
| 2026-05-01 13:46 | 39.41323 | 19.44923 | 34963 ft | 394 kts | 255° |
| 2026-05-01 13:46 | 39.40368 | 19.41326 | 35026 ft | 396 kts | 255° |
| 2026-05-01 13:46 | 39.31644 | 19.08511 | 35308 ft | 409 kts | 254° |
| 2026-05-01 13:47 | 39.31348 | 19.07429 | 35257 ft | 409 kts | 254° |
| 2026-05-01 13:48 | 39.30632 | 19.04844 | 35167 ft | 405 kts | 254° |
| 2026-05-01 13:48 | 39.28892 | 18.98075 | 35075 ft | 391 kts | 259° |
| 2026-05-01 13:49 | 39.27602 | 18.91303 | 35074 ft | 391 kts | 259° |
| 2026-05-01 13:49 | 39.26310 | 18.84477 | 35077 ft | 391 kts | 259° |
| 2026-05-01 13:50 | 39.25013 | 18.77649 | 35070 ft | 392 kts | 259° |
| 2026-05-01 13:50 | 39.23708 | 18.70814 | 35075 ft | 393 kts | 259° |
| 2026-05-01 13:51 | 39.22396 | 18.63967 | 35076 ft | 394 kts | 259° |
| 2026-05-01 13:51 | 39.21075 | 18.57098 | 35089 ft | 395 kts | 259° |
| 2026-05-01 13:52 | 39.19746 | 18.50213 | 35085 ft | 396 kts | 259° |
| 2026-05-01 13:52 | 39.18412 | 18.43327 | 35095 ft | 396 kts | 259° |
| 2026-05-01 13:53 | 39.17070 | 18.36420 | 35084 ft | 398 kts | 259° |
| 2026-05-01 13:53 | 39.15040 | 18.26020 | 35085 ft | 400 kts | 259° |
| 2026-05-01 13:54 | 39.13679 | 18.19076 | 35091 ft | 400 kts | 259° |
| 2026-05-01 13:54 | 39.12310 | 18.12120 | 35097 ft | 401 kts | 259° |
| 2026-05-01 13:55 | 39.11160 | 18.06292 | 35099 ft | 401 kts | 259° |
| 2026-05-01 13:55 | 39.09792 | 17.99379 | 35099 ft | 401 kts | 259° |
| 2026-05-01 13:56 | 39.08412 | 17.92432 | 35101 ft | 401 kts | 259° |
| 2026-05-01 13:56 | 39.07031 | 17.85502 | 35101 ft | 398 kts | 259° |
| 2026-05-01 13:57 | 38.98458 | 17.42741 | 34991 ft | 395 kts | 259° |
| 2026-05-01 13:57 | 38.87128 | 16.88122 | 35040 ft | 394 kts | 259° |
| 2026-05-01 13:57 | 38.63804 | 15.79566 | 35105 ft | 398 kts | 259° |
| 2026-05-01 13:58 | 38.39415 | 14.70629 | 35128 ft | 400 kts | 259° |
| 2026-05-01 13:58 | 38.36344 | 14.57542 | 35136 ft | 392 kts | 259° |
| 2026-05-01 13:59 | 38.35566 | 14.54291 | 35111 ft | 377 kts | 259° |
| 2026-05-01 13:59 | 38.34824 | 14.51130 | 34893 ft | 368 kts | 259° |
| 2026-05-01 13:59 | 38.34099 | 14.48004 | 34282 ft | 370 kts | 260° |
| 2026-05-01 13:59 | 38.33366 | 14.44828 | 33329 ft | 378 kts | 260° |
| 2026-05-01 14:00 | 38.32622 | 14.41585 | 32367 ft | 385 kts | 260° |
| 2026-05-01 14:00 | 38.31865 | 14.38281 | 31445 ft | 391 kts | 259° |
| 2026-05-01 14:00 | 38.31098 | 14.34944 | 30602 ft | 395 kts | 259° |
| 2026-05-01 14:00 | 38.30322 | 14.31580 | 29734 ft | 396 kts | 259° |
| 2026-05-01 14:01 | 38.29543 | 14.28208 | 28832 ft | 397 kts | 259° |
| 2026-05-01 14:01 | 38.28764 | 14.24849 | 28129 ft | 394 kts | 259° |
| 2026-05-01 14:01 | 38.27991 | 14.21526 | 27503 ft | 389 kts | 259° |
| 2026-05-01 14:01 | 38.27227 | 14.18245 | 26974 ft | 384 kts | 259° |
| 2026-05-01 14:02 | 38.26474 | 14.15010 | 26428 ft | 379 kts | 260° |
| 2026-05-01 14:02 | 38.25728 | 14.11811 | 25879 ft | 375 kts | 259° |
| 2026-05-01 14:02 | 38.25003 | 14.08696 | 25385 ft | 371 kts | 259° |
| 2026-05-01 14:02 | 38.24273 | 14.05564 | 24879 ft | 367 kts | 259° |
| 2026-05-01 14:03 | 38.23550 | 14.02464 | 24377 ft | 365 kts | 259° |
| 2026-05-01 14:03 | 38.22821 | 13.99340 | 23864 ft | 362 kts | 259° |
| 2026-05-01 14:03 | 38.22114 | 13.96316 | 23216 ft | 362 kts | 259° |
| 2026-05-01 14:03 | 38.21389 | 13.93220 | 22735 ft | 357 kts | 259° |
| 2026-05-01 14:04 | 38.20691 | 13.90244 | 22237 ft | 355 kts | 259° |
| 2026-05-01 14:04 | 38.19987 | 13.87250 | 21721 ft | 353 kts | 259° |
| 2026-05-01 14:04 | 38.19285 | 13.84262 | 21200 ft | 354 kts | 259° |
| 2026-05-01 14:04 | 38.18571 | 13.81209 | 20718 ft | 366 kts | 259° |
| 2026-05-01 14:05 | 38.17837 | 13.78079 | 20197 ft | 371 kts | 258° |
| 2026-05-01 14:05 | 38.17098 | 13.74952 | 19673 ft | 368 kts | 258° |
| 2026-05-01 14:05 | 38.16363 | 13.71858 | 19160 ft | 364 kts | 258° |
| 2026-05-01 14:05 | 38.15634 | 13.68789 | 18661 ft | 362 kts | 258° |
| 2026-05-01 14:06 | 38.14909 | 13.65738 | 18083 ft | 360 kts | 258° |
| 2026-05-01 14:06 | 38.14189 | 13.62708 | 17539 ft | 357 kts | 258° |
| 2026-05-01 14:06 | 38.13474 | 13.59704 | 17017 ft | 354 kts | 258° |
| 2026-05-01 14:06 | 38.12765 | 13.56724 | 16507 ft | 351 kts | 258° |
| 2026-05-01 14:07 | 38.12059 | 13.53762 | 16012 ft | 349 kts | 258° |
| 2026-05-01 14:07 | 38.11358 | 13.50823 | 15520 ft | 347 kts | 258° |
| 2026-05-01 14:07 | 38.10660 | 13.47897 | 14994 ft | 346 kts | 258° |
| 2026-05-01 14:08 | 38.09264 | 13.42061 | 13968 ft | 346 kts | 258° |
| 2026-05-01 14:08 | 38.08564 | 13.39137 | 13401 ft | 346 kts | 257° |
| 2026-05-01 14:08 | 38.07863 | 13.36217 | 12881 ft | 345 kts | 257° |
| 2026-05-01 14:08 | 38.07164 | 13.33306 | 12382 ft | 344 kts | 257° |
| 2026-05-01 14:09 | 38.06468 | 13.30409 | 11883 ft | 343 kts | 257° |
| 2026-05-01 14:09 | 38.05771 | 13.27519 | 11405 ft | 342 kts | 257° |
| 2026-05-01 14:09 | 38.05082 | 13.24652 | 11125 ft | 334 kts | 257° |
| 2026-05-01 14:09 | 38.04695 | 13.21838 | 10954 ft | 316 kts | 276° |
| 2026-05-01 14:10 | 38.05176 | 13.19218 | 10829 ft | 298 kts | 296° |
| 2026-05-01 14:10 | 38.06239 | 13.17027 | 10626 ft | 288 kts | 310° |
| 2026-05-01 14:10 | 38.07641 | 13.15280 | 10482 ft | 279 kts | 324° |
| 2026-05-01 14:10 | 38.09295 | 13.14085 | 10323 ft | 269 kts | 333° |
| 2026-05-01 14:11 | 38.10958 | 13.13103 | 10240 ft | 259 kts | 334° |
| 2026-05-01 14:11 | 38.14184 | 13.11221 | 9794 ft | 253 kts | 334° |
| 2026-05-01 14:11 | 38.15757 | 13.10285 | 9678 ft | 246 kts | 334° |
| 2026-05-01 14:12 | 38.17280 | 13.09375 | 9561 ft | 239 kts | 334° |
| 2026-05-01 14:12 | 38.18769 | 13.08489 | 9363 ft | 235 kts | 335° |
| 2026-05-01 14:12 | 38.20258 | 13.07639 | 9103 ft | 234 kts | 336° |
| 2026-05-01 14:12 | 38.21742 | 13.06801 | 8823 ft | 233 kts | 336° |
| 2026-05-01 14:13 | 38.23219 | 13.05964 | 8562 ft | 232 kts | 336° |
| 2026-05-01 14:13 | 38.24192 | 13.05412 | 8396 ft | 231 kts | 336° |
| 2026-05-01 14:13 | 38.26140 | 13.04304 | 8149 ft | 225 kts | 336° |
| 2026-05-01 14:13 | 38.27547 | 13.03504 | 8038 ft | 219 kts | 336° |
| 2026-05-01 14:14 | 38.28940 | 13.02677 | 7785 ft | 221 kts | 329° |
| 2026-05-01 14:14 | 38.29974 | 13.01258 | 7537 ft | 223 kts | 298° |
| 2026-05-01 14:14 | 38.30325 | 12.99321 | 7320 ft | 230 kts | 273° |
| 2026-05-01 14:14 | 38.29972 | 12.97305 | 7091 ft | 239 kts | 251° |
| 2026-05-01 14:15 | 38.29318 | 12.95385 | 6829 ft | 241 kts | 251° |
| 2026-05-01 14:15 | 38.28648 | 12.93430 | 6567 ft | 241 kts | 250° |
| 2026-05-01 14:15 | 38.27971 | 12.91451 | 6280 ft | 241 kts | 250° |
| 2026-05-01 14:15 | 38.27297 | 12.89473 | 5896 ft | 245 kts | 250° |
| 2026-05-01 14:16 | 38.26620 | 12.87482 | 5623 ft | 245 kts | 250° |
| 2026-05-01 14:16 | 38.25941 | 12.85492 | 5346 ft | 245 kts | 248° |
| 2026-05-01 14:16 | 38.24899 | 12.83785 | 5058 ft | 249 kts | 214° |
| 2026-05-01 14:16 | 38.23281 | 12.83086 | 4749 ft | 249 kts | 179° |
| 2026-05-01 14:17 | 38.21607 | 12.83494 | 4441 ft | 244 kts | 156° |
| 2026-05-01 14:17 | 38.20043 | 12.84330 | 4140 ft | 244 kts | 153° |
| 2026-05-01 14:17 | 38.18498 | 12.85206 | 3811 ft | 242 kts | 153° |
| 2026-05-01 14:17 | 38.16925 | 12.86085 | 3246 ft | 250 kts | 152° |
| 2026-05-01 14:18 | 38.15339 | 12.86955 | 2892 ft | 245 kts | 152° |
| 2026-05-01 14:18 | 38.13805 | 12.87787 | 2622 ft | 234 kts | 151° |
| 2026-05-01 14:18 | 38.12543 | 12.88886 | 2391 ft | 209 kts | 119° |
| 2026-05-01 14:18 | 38.12118 | 12.89908 | 2339 ft | 188 kts | 102° |
| 2026-05-01 14:19 | 38.11959 | 12.92030 | 2281 ft | 174 kts | 77° |
| 2026-05-01 14:19 | 38.12286 | 12.93420 | 2289 ft | 158 kts | 62° |
| 2026-05-01 14:19 | 38.12703 | 12.94681 | 2305 ft | 154 kts | 62° |
| 2026-05-01 14:19 | 38.13120 | 12.95901 | 2173 ft | 154 kts | 62° |
| 2026-05-01 14:20 | 38.13549 | 12.97158 | 1970 ft | 155 kts | 62° |
| 2026-05-01 14:20 | 38.14395 | 12.99649 | 1582 ft | 147 kts | 64° |
| 2026-05-01 14:20 | 38.14794 | 13.00833 | 1320 ft | 142 kts | 63° |
| 2026-05-01 14:21 | 38.15173 | 13.01949 | 1076 ft | 135 kts | 61° |
| 2026-05-01 14:21 | 38.15567 | 13.03022 | 882 ft | 134 kts | 62° |
| 2026-05-01 14:21 | 38.15917 | 13.04115 | 791 ft | 134 kts | 63° |
| 2026-05-01 14:22 | 38.16633 | 13.06301 | 549 ft | 135 kts | 63° |
| 2026-05-01 14:22 | 38.17014 | 13.07389 | 352 ft | 134 kts | 63° |
| 2026-05-01 14:22 | 38.17376 | 13.08488 | 165 ft | 135 kts | 64° |
| 2026-05-01 14:22 | 38.17735 | 13.09557 | 66 ft | 122 kts | 59° |
| 2026-05-01 14:23 | 38.18042 | 13.10460 | 65 ft | 101 kts | 67° |
| 2026-05-01 14:23 | 38.18290 | 13.11200 | 65 ft | 71 kts | 66° |
| 2026-05-01 14:23 | 38.18443 | 13.11640 | 65 ft | 48 kts | 66° |
| 2026-05-01 14:23 | 38.18521 | 13.11853 | 67 ft | 16 kts | 51° |
| 2026-05-01 14:24 | 38.18595 | 13.11814 | 59 ft | 16 kts | 278° |
| 2026-05-01 14:24 | 38.18609 | 13.11675 | 59 ft | 16 kts | 278° |
| 2026-05-01 14:24 | 38.18609 | 13.11541 | 64 ft | 14 kts | 255° |
| 2026-05-01 14:24 | 38.18570 | 13.11427 | 60 ft | 14 kts | 246° |
| 2026-05-01 14:25 | 38.18533 | 13.11317 | 57 ft | 13 kts | 247° |
| 2026-05-01 14:25 | 38.18498 | 13.11211 | 62 ft | 13 kts | 247° |
| 2026-05-01 14:25 | 38.18464 | 13.11108 | 59 ft | 12 kts | 246° |
| 2026-05-01 14:25 | 38.18431 | 13.11010 | 62 ft | 9 kts | 246° |
| 2026-05-01 14:26 | 38.18438 | 13.10941 | 57 ft | 9 kts | 327° |
| 2026-05-01 14:26 | 38.18487 | 13.10810 | 61 ft | 8 kts | 290° |
| 2026-05-01 14:26 | 38.18507 | 13.10741 | 64 ft | 7 kts | 283° |
| 2026-05-01 14:27 | 38.18506 | 13.10706 | 64 ft | 4 kts | 284° |
| 2026-05-01 14:27 | 38.18535 | 13.10680 | 63 ft | 6 kts | 336° |
| 2026-05-01 14:27 | 38.18566 | 13.10664 | 62 ft | 3 kts | 337° |
| 2026-05-01 14:28 | 38.18567 | 13.10664 | 62 ft | 0 kts | 337° |
| 2026-05-01 14:28 | 38.18566 | 13.10663 | 62 ft | 0 kts | 335° |